createdAt,value
2019-02-06T00:08:05.691Z,3.60
2019-02-06T00:38:36.176Z,3.30
2019-02-06T00:48:45.313Z,3.30
2019-02-06T00:53:49.995Z,3.30
2019-02-06T00:58:56.856Z,3.30
2019-02-06T01:04:01.524Z,3.40
2019-02-06T01:19:18.953Z,3.30
2019-02-06T01:29:32.266Z,3.30
2019-02-06T01:39:44.750Z,3.30
2019-02-06T01:54:58.252Z,3.30
2019-02-06T02:15:19.290Z,3.40
2019-02-06T02:46:08.950Z,3.30
2019-02-06T03:01:44.672Z,3.30
2019-02-06T03:06:49.678Z,3.30
2019-02-06T03:11:55.045Z,3.50
2019-02-06T03:22:06.466Z,3.40
2019-02-06T03:27:15.171Z,3.40
2019-02-06T03:42:28.409Z,3.30
2019-02-06T03:47:33.598Z,3.40
2019-02-06T03:57:42.859Z,3.40
2019-02-06T04:02:51.178Z,3.40
2019-02-06T04:07:56.075Z,3.40
2019-02-06T04:13:00.896Z,3.40
2019-02-06T04:23:10.257Z,3.40
2019-02-06T04:28:15.394Z,3.40
2019-02-06T04:43:31.683Z,3.30
2019-02-06T04:48:36.489Z,3.40
2019-02-06T04:53:41.216Z,3.40
2019-02-06T05:03:56.434Z,3.50
2019-02-06T05:19:10.553Z,3.50
2019-02-06T05:34:54.499Z,3.60
2019-02-06T05:45:03.703Z,3.50
2019-02-06T05:50:09.733Z,3.50
2019-02-06T06:05:29.846Z,3.60
2019-02-06T06:15:42.734Z,3.50
2019-02-06T06:26:03.371Z,3.50
2019-02-06T06:31:09.185Z,3.60
2019-02-06T06:36:18.875Z,3.50
2019-02-06T06:41:29.833Z,3.50
2019-02-06T06:51:42.080Z,3.70
2019-02-06T06:56:47.025Z,3.80
2019-02-06T07:01:52.033Z,3.80
2019-02-06T07:17:07.903Z,3.80
2019-02-06T07:22:14.103Z,3.80
2019-02-06T07:27:21.032Z,3.90
2019-02-06T07:42:36.871Z,4.00
2019-02-06T07:47:41.632Z,4.10
2019-02-06T07:57:51.209Z,4.40
2019-02-06T08:02:57.998Z,4.50
2019-02-06T08:08:03.083Z,4.60
2019-02-06T08:13:08.002Z,4.40
2019-02-06T08:28:21.643Z,4.70
2019-02-06T08:33:26.414Z,4.80
2019-02-06T08:38:31.319Z,4.80
2019-02-06T08:43:36.241Z,4.90
2019-02-06T08:53:45.244Z,5.10
2019-02-06T08:58:56.448Z,5.10
2019-02-06T09:14:14.056Z,5.50
2019-02-06T09:19:19.987Z,5.50
2019-02-06T09:34:39.487Z,6.10
2019-02-06T09:39:47.050Z,6.20
2019-02-06T09:44:52.313Z,6.30
2019-02-06T09:49:57.150Z,6.70
2019-02-06T09:55:01.841Z,7.00
2019-02-06T10:00:09.737Z,7.20
2019-02-06T10:05:14.753Z,7.10
2019-02-06T10:10:22.207Z,7.20
2019-02-06T10:15:31.840Z,7.00
2019-02-06T10:20:48.781Z,7.00
2019-02-06T10:25:59.437Z,7.30
2019-02-06T10:31:04.423Z,7.30
2019-02-06T10:36:09.207Z,7.00
2019-02-06T10:41:14.104Z,7.20
2019-02-06T10:46:18.981Z,7.50
2019-02-06T10:51:24.020Z,7.70
2019-02-06T10:56:29.055Z,7.50
2019-02-06T11:01:37.307Z,7.50
2019-02-06T11:06:43.432Z,7.40
2019-02-06T11:11:48.533Z,7.60
2019-02-06T11:16:53.508Z,7.60
2019-02-06T11:21:58.912Z,7.70
2019-02-06T11:27:10.809Z,7.70
2019-02-06T11:32:15.614Z,8.10
2019-02-06T11:37:20.516Z,8.00
2019-02-06T11:42:25.446Z,8.20
2019-02-06T11:47:30.384Z,8.00
2019-02-06T11:52:35.160Z,8.60
2019-02-06T11:58:01.078Z,8.40
2019-02-06T12:03:06.232Z,8.60
2019-02-06T12:08:12.583Z,8.90
2019-02-06T12:13:20.047Z,8.50
2019-02-06T12:18:25.747Z,8.50
2019-02-06T12:23:35.189Z,8.70
2019-02-06T12:28:39.945Z,8.80
2019-02-06T12:33:44.681Z,8.90
2019-02-06T12:38:53.465Z,9.00
2019-02-06T12:43:56.484Z,9.10
2019-02-06T12:49:01.465Z,9.30
2019-02-06T12:54:09.120Z,9.00
2019-02-06T12:59:14.011Z,8.90
2019-02-06T13:04:25.073Z,9.00
2019-02-06T13:09:30.104Z,9.00
2019-02-06T13:14:37.238Z,8.90
2019-02-06T13:19:45.713Z,9.10
2019-02-06T13:25:03.243Z,9.30
2019-02-06T13:30:12.045Z,9.00
2019-02-06T13:35:17.118Z,9.20
2019-02-06T13:40:23.521Z,9.20
2019-02-06T13:45:33.976Z,9.30
2019-02-06T13:50:38.934Z,9.50
2019-02-06T13:55:43.994Z,9.60
2019-02-06T14:00:51.965Z,9.50
2019-02-06T14:05:55.538Z,9.50
2019-02-06T14:11:00.970Z,9.70
2019-02-06T14:16:07.256Z,9.80
2019-02-06T14:21:15.913Z,10.00
2019-02-06T14:26:46.036Z,10.00
2019-02-06T14:32:16.242Z,10.10
2019-02-06T14:37:42.441Z,10.10
2019-02-06T14:43:45.167Z,10.20
2019-02-06T14:49:25.057Z,10.20
2019-02-06T14:55:43.886Z,10.10
2019-02-06T15:01:07.728Z,10.20
2019-02-06T15:06:37.599Z,10.10
2019-02-06T15:12:14.428Z,9.90
2019-02-06T15:17:43.664Z,10.00
2019-02-06T15:23:36.478Z,10.00
2019-02-06T15:29:29.353Z,10.20
2019-02-06T15:35:31.802Z,10.10
2019-02-06T15:41:17.562Z,10.10
2019-02-06T15:47:13.329Z,10.00
2019-02-06T15:53:14.248Z,10.00
2019-02-06T15:59:02.939Z,9.90
2019-02-06T16:04:49.448Z,9.90
2019-02-06T16:10:20.980Z,9.80
2019-02-06T16:15:53.614Z,9.80
2019-02-06T16:21:52.803Z,9.80
2019-02-06T16:27:20.079Z,9.80
2019-02-06T16:45:30.137Z,9.70
2019-02-06T16:50:59.708Z,9.60
2019-02-06T16:56:26.955Z,9.70
2019-02-06T17:02:09.544Z,9.60
2019-02-06T17:07:56.397Z,9.60
2019-02-06T17:13:17.957Z,9.60
2019-02-06T17:18:41.317Z,9.60
2019-02-06T17:24:18.491Z,9.50
2019-02-06T17:29:46.071Z,9.50
2019-02-06T17:35:30.872Z,9.50
2019-02-06T17:40:45.622Z,9.50
2019-02-06T17:46:34.790Z,9.40
2019-02-06T17:52:13.753Z,9.40
2019-02-06T17:57:18.863Z,9.30
2019-02-06T18:02:24.109Z,9.30
2019-02-06T18:07:29.028Z,9.20
2019-02-06T18:12:34.344Z,9.20
2019-02-06T18:17:39.377Z,9.10
2019-02-06T18:22:44.369Z,9.10
2019-02-06T18:27:49.441Z,8.90
2019-02-06T18:33:02.134Z,8.70
2019-02-06T18:43:49.176Z,8.50
2019-02-06T18:54:33.304Z,8.40
2019-02-06T18:59:54.452Z,8.40
2019-02-06T19:05:30.171Z,8.30
2019-02-06T19:10:39.563Z,8.20
2019-02-06T19:15:55.912Z,8.10
2019-02-06T19:21:15.521Z,8.00
2019-02-06T19:26:29.040Z,8.00
2019-02-06T19:31:35.683Z,7.90
2019-02-06T19:36:46.817Z,7.90
2019-02-06T19:46:58.846Z,7.80
2019-02-06T19:57:26.050Z,7.60
2019-02-06T20:02:30.718Z,7.50
2019-02-06T20:07:35.511Z,7.60
2019-02-06T20:12:40.619Z,7.50
2019-02-06T20:23:00.214Z,7.50
2019-02-06T20:33:29.548Z,7.30
2019-02-06T20:38:39.264Z,7.30
2019-02-06T20:43:51.026Z,7.20
2019-02-06T20:54:24.720Z,7.10
2019-02-06T21:14:57.775Z,6.70
2019-02-06T21:30:24.020Z,6.50
2019-02-06T22:01:16.762Z,6.50
2019-02-06T22:06:34.935Z,6.60
2019-02-06T22:22:13.225Z,6.60
2019-02-06T22:27:29.841Z,6.70
2019-02-06T22:32:42.554Z,6.60
2019-02-06T23:09:09.043Z,6.20
2019-02-06T23:19:19.861Z,6.30
2019-02-06T23:24:24.752Z,6.30
2019-02-06T23:34:34.179Z,6.20
2019-02-06T23:39:39.294Z,6.30
2019-02-06T23:44:44.241Z,6.30
2019-02-06T23:49:49.095Z,6.20
